createdAt,value
2023-12-10T00:01:55.381Z,33.15
2023-12-10T00:04:24.008Z,37.17
2023-12-10T00:06:52.106Z,42.75
2023-12-10T00:09:18.990Z,40.67
2023-12-10T00:11:45.637Z,41.05
2023-12-10T00:14:12.314Z,39.58
2023-12-10T00:16:38.968Z,40.63
2023-12-10T00:19:05.969Z,37.65
2023-12-10T00:21:32.763Z,31.17
2023-12-10T00:23:59.498Z,34.05
2023-12-10T00:26:26.173Z,31.45
2023-12-10T00:28:52.839Z,40.63
2023-12-10T00:31:19.520Z,36.70
2023-12-10T00:33:46.275Z,35.38
2023-12-10T00:36:13.291Z,39.40
2023-12-10T00:38:40.080Z,38.67
2023-12-10T00:41:06.973Z,30.15
2023-12-10T00:43:33.666Z,44.65
2023-12-10T00:46:00.364Z,41.95
2023-12-10T00:48:27.200Z,38.58
2023-12-10T00:50:53.924Z,39.10
2023-12-10T00:53:20.580Z,38.88
2023-12-10T00:55:48.071Z,34.60
2023-12-10T00:58:15.386Z,33.40
2023-12-10T01:00:42.792Z,39.47
2023-12-10T01:03:09.675Z,37.33
2023-12-10T01:05:36.609Z,39.17
2023-12-10T01:08:04.448Z,36.53
2023-12-10T01:10:31.468Z,42.33
2023-12-10T01:12:58.619Z,36.13
2023-12-10T01:15:32.908Z,39.70
2023-12-10T01:18:03.690Z,41.60
2023-12-10T01:20:32.200Z,35.10
2023-12-10T01:22:59.525Z,35.50
2023-12-10T01:25:26.932Z,34.80
2023-12-10T01:27:54.734Z,40.38
2023-12-10T01:30:24.789Z,30.00
2023-12-10T01:32:58.769Z,32.97
2023-12-10T01:35:26.973Z,42.53
2023-12-10T01:37:54.160Z,42.70
2023-12-10T01:40:20.878Z,38.20
2023-12-10T01:42:50.407Z,36.70
2023-12-10T01:47:49.045Z,34.20
2023-12-10T01:50:19.591Z,42.63
2023-12-10T01:52:50.452Z,36.15
2023-12-10T01:55:17.830Z,34.33
2023-12-10T01:57:44.791Z,39.35
2023-12-10T02:00:12.370Z,43.00
2023-12-10T02:02:40.717Z,43.60
2023-12-10T02:05:10.680Z,37.80
2023-12-10T02:07:38.393Z,40.25
2023-12-10T02:10:07.301Z,37.45
2023-12-10T02:12:37.857Z,36.47
2023-12-10T02:15:21.124Z,38.22
2023-12-10T02:17:49.450Z,26.55
2023-12-10T02:20:17.822Z,40.05
2023-12-10T02:22:52.574Z,29.05
2023-12-10T02:25:31.742Z,44.75
2023-12-10T02:27:59.041Z,31.48
2023-12-10T02:30:26.818Z,28.67
2023-12-10T02:32:53.661Z,38.70
2023-12-10T02:35:20.388Z,39.83
2023-12-10T02:37:47.246Z,31.95
2023-12-10T02:40:14.530Z,34.17
2023-12-10T02:42:41.541Z,36.22
2023-12-10T02:45:08.436Z,39.75
2023-12-10T02:47:36.664Z,35.10
2023-12-10T02:50:03.768Z,33.28
2023-12-10T02:52:30.808Z,33.75
2023-12-10T02:54:57.580Z,36.95
2023-12-10T02:57:24.295Z,34.05
2023-12-10T02:59:50.964Z,30.10
2023-12-10T03:02:17.705Z,34.15
2023-12-10T03:04:44.416Z,36.03
2023-12-10T03:07:11.130Z,34.20
2023-12-10T03:09:37.930Z,46.35
2023-12-10T03:12:05.336Z,31.92
2023-12-10T03:14:32.069Z,34.80
2023-12-10T03:16:58.806Z,25.25
2023-12-10T03:19:25.496Z,31.83
2023-12-10T03:21:52.285Z,38.85
2023-12-10T03:24:19.022Z,31.33
2023-12-10T03:26:45.770Z,41.80
2023-12-10T03:29:12.510Z,32.97
2023-12-10T03:31:39.178Z,26.48
2023-12-10T03:34:05.982Z,27.88
2023-12-10T03:36:32.776Z,30.20
2023-12-10T03:38:59.541Z,31.70
2023-12-10T03:41:26.308Z,30.58
2023-12-10T03:43:52.934Z,33.10
2023-12-10T03:46:19.606Z,26.80
2023-12-10T03:48:46.551Z,22.58
2023-12-10T03:51:13.401Z,23.67
2023-12-10T03:53:40.106Z,27.15
2023-12-10T03:56:07.260Z,34.10
2023-12-10T03:58:33.972Z,31.15
2023-12-10T04:01:00.772Z,31.85
2023-12-10T04:03:27.883Z,31.42
2023-12-10T04:05:54.628Z,27.65
2023-12-10T04:08:21.301Z,27.95
2023-12-10T04:10:47.977Z,28.55
2023-12-10T04:13:14.638Z,22.83
2023-12-10T04:15:42.514Z,30.90
2023-12-10T04:18:09.338Z,25.67
2023-12-10T04:20:36.055Z,29.95
2023-12-10T04:23:03.117Z,26.55
2023-12-10T04:25:29.962Z,24.58
2023-12-10T04:27:56.700Z,21.45
2023-12-10T04:30:25.376Z,25.85
2023-12-10T04:32:52.150Z,19.57
2023-12-10T04:35:19.193Z,23.25
2023-12-10T04:37:46.126Z,19.08
2023-12-10T04:40:14.277Z,24.13
2023-12-10T04:42:41.009Z,22.17
2023-12-10T04:45:08.870Z,24.13
2023-12-10T04:47:36.735Z,22.98
2023-12-10T04:50:04.247Z,26.13
2023-12-10T04:52:32.038Z,20.10
2023-12-10T04:54:59.770Z,20.10
2023-12-10T04:57:27.133Z,19.88
2023-12-10T04:59:54.236Z,28.67
2023-12-10T05:02:20.930Z,22.83
2023-12-10T05:04:47.666Z,26.67
2023-12-10T05:07:14.386Z,20.58
2023-12-10T05:09:41.602Z,29.55
2023-12-10T05:12:08.606Z,23.65
2023-12-10T05:14:35.348Z,22.13
2023-12-10T05:17:02.007Z,27.98
2023-12-10T05:19:28.775Z,18.92
2023-12-10T05:21:55.705Z,28.95
2023-12-10T05:24:22.609Z,27.90
2023-12-10T05:26:49.297Z,22.75
2023-12-10T05:29:15.964Z,18.52
2023-12-10T05:31:42.629Z,25.33
2023-12-10T05:34:09.855Z,28.02
2023-12-10T05:36:36.594Z,25.00
2023-12-10T05:39:04.390Z,21.25
2023-12-10T05:41:31.082Z,24.00
2023-12-10T05:43:57.770Z,25.08
2023-12-10T05:46:24.566Z,24.67
2023-12-10T05:48:51.368Z,28.65
2023-12-10T05:51:18.349Z,24.48
2023-12-10T05:53:45.085Z,28.27
2023-12-10T05:56:11.773Z,22.00
2023-12-10T05:58:38.462Z,34.28
2023-12-10T06:01:05.587Z,22.30
2023-12-10T06:03:32.371Z,26.35
2023-12-10T06:05:59.138Z,27.13
2023-12-10T06:08:25.857Z,21.75
2023-12-10T06:10:52.591Z,23.40
2023-12-10T06:13:19.368Z,33.28
2023-12-10T06:15:46.666Z,26.55
2023-12-10T06:18:13.795Z,34.00
2023-12-10T06:20:40.566Z,32.88
2023-12-10T06:23:07.296Z,27.10
2023-12-10T06:25:33.984Z,33.28
2023-12-10T06:28:00.722Z,31.88
2023-12-10T06:30:27.457Z,29.98
2023-12-10T06:32:56.724Z,18.83
2023-12-10T06:37:50.811Z,25.20
2023-12-10T06:40:17.792Z,27.00
2023-12-10T06:42:45.978Z,17.70
2023-12-10T06:45:14.522Z,27.73
2023-12-10T06:47:42.176Z,20.85
2023-12-10T06:50:10.834Z,22.58
2023-12-10T06:52:37.933Z,22.58
2023-12-10T06:55:05.059Z,30.70
2023-12-10T06:57:31.854Z,19.75
2023-12-10T06:59:58.488Z,24.98
2023-12-10T07:02:25.108Z,32.47
2023-12-10T07:04:51.841Z,23.00
2023-12-10T07:07:18.593Z,27.33
2023-12-10T07:09:45.343Z,26.60
2023-12-10T07:12:12.071Z,23.00
2023-12-10T07:14:38.774Z,20.98
2023-12-10T07:17:05.555Z,29.27
2023-12-10T07:19:32.386Z,30.92
2023-12-10T07:21:59.456Z,33.63
2023-12-10T07:24:26.224Z,29.83
2023-12-10T07:26:53.329Z,30.70
2023-12-10T07:29:20.161Z,32.80
2023-12-10T07:31:46.818Z,20.58
2023-12-10T07:34:13.637Z,28.48
2023-12-10T07:36:41.304Z,28.23
2023-12-10T07:39:10.584Z,26.90
2023-12-10T07:41:37.337Z,29.60
2023-12-10T07:44:04.347Z,21.30
2023-12-10T07:46:31.153Z,29.40
2023-12-10T07:48:57.911Z,26.55
2023-12-10T07:51:24.755Z,30.20
2023-12-10T07:53:51.463Z,26.27
2023-12-10T07:56:18.188Z,25.92
2023-12-10T07:58:44.885Z,31.35
2023-12-10T08:01:11.902Z,24.05
2023-12-10T08:03:38.947Z,27.30
2023-12-10T08:06:05.879Z,33.25
2023-12-10T08:08:32.727Z,26.83
2023-12-10T08:10:59.509Z,24.60
2023-12-10T08:13:26.262Z,25.42
2023-12-10T08:15:53.168Z,32.88
2023-12-10T08:18:20.018Z,26.27
2023-12-10T08:20:46.952Z,43.55
2023-12-10T08:23:13.678Z,24.02
2023-12-10T08:25:40.355Z,33.10
2023-12-10T08:28:07.208Z,26.10
2023-12-10T08:30:34.117Z,24.05
2023-12-10T08:33:00.931Z,25.13
2023-12-10T08:35:27.721Z,25.60
2023-12-10T08:37:54.631Z,27.98
2023-12-10T08:40:21.509Z,27.15
2023-12-10T08:42:48.363Z,36.63
2023-12-10T08:45:15.431Z,33.40
2023-12-10T08:47:42.211Z,28.65
2023-12-10T08:50:09.912Z,29.08
2023-12-10T08:52:36.747Z,29.80
2023-12-10T08:55:03.778Z,30.42
2023-12-10T08:57:30.578Z,33.28
2023-12-10T09:00:01.931Z,27.27
2023-12-10T09:02:30.069Z,33.03
2023-12-10T09:04:57.341Z,30.42
2023-12-10T09:07:23.971Z,31.10
2023-12-10T09:09:56.419Z,27.08
2023-12-10T09:12:29.720Z,34.50
2023-12-10T09:14:56.818Z,28.55
2023-12-10T09:17:23.552Z,23.08
2023-12-10T09:19:50.528Z,28.05
2023-12-10T09:22:17.452Z,30.05
2023-12-10T09:24:44.316Z,27.08
2023-12-10T09:27:11.375Z,30.05
2023-12-10T09:29:42.392Z,25.40
2023-12-10T09:32:09.963Z,27.75
2023-12-10T09:34:37.253Z,24.63
2023-12-10T09:37:05.661Z,28.23
2023-12-10T09:39:32.685Z,23.98
2023-12-10T09:41:59.447Z,28.38
2023-12-10T09:44:27.290Z,29.17
2023-12-10T09:46:53.926Z,28.60
2023-12-10T09:49:22.665Z,30.63
2023-12-10T09:51:49.520Z,31.98
2023-12-10T09:54:21.835Z,32.72
2023-12-10T09:56:51.342Z,28.73
2023-12-10T09:59:18.300Z,17.73
2023-12-10T10:01:50.436Z,24.50
2023-12-10T10:04:21.213Z,29.80
2023-12-10T10:06:48.256Z,20.15
2023-12-10T10:09:27.814Z,34.40
2023-12-10T10:12:00.011Z,22.70
2023-12-10T10:14:26.776Z,25.75
2023-12-10T10:16:53.541Z,19.15
2023-12-10T10:19:20.671Z,24.35
2023-12-10T10:21:47.990Z,23.38
2023-12-10T10:24:17.015Z,26.42
2023-12-10T10:26:44.913Z,22.10
2023-12-10T10:29:11.644Z,23.17
2023-12-10T10:31:39.055Z,23.42
2023-12-10T10:34:07.890Z,24.92
2023-12-10T10:36:34.784Z,24.17
2023-12-10T10:39:02.272Z,27.45
2023-12-10T10:41:31.876Z,24.60
2023-12-10T10:46:27.429Z,25.77
2023-12-10T10:48:56.232Z,28.50
2023-12-10T10:51:26.172Z,20.02
2023-12-10T10:53:55.900Z,26.95
2023-12-10T10:56:23.324Z,18.90
2023-12-10T10:58:49.973Z,31.38
2023-12-10T11:01:43.511Z,28.60
2023-12-10T11:04:16.759Z,22.90
2023-12-10T11:06:47.905Z,22.48
2023-12-10T11:09:14.977Z,25.08
2023-12-10T11:11:41.810Z,23.98
2023-12-10T11:14:23.496Z,26.83
2023-12-10T11:17:03.658Z,22.38
2023-12-10T11:19:32.450Z,27.73
2023-12-10T11:22:03.355Z,22.35
2023-12-10T11:24:30.592Z,20.20
2023-12-10T11:26:57.312Z,21.77
2023-12-10T11:29:24.026Z,20.98
2023-12-10T11:31:50.763Z,21.20
2023-12-10T11:34:17.504Z,22.13
2023-12-10T11:36:49.572Z,21.10
2023-12-10T11:39:16.882Z,24.00
2023-12-10T11:41:55.626Z,31.10
2023-12-10T11:44:27.150Z,17.23
2023-12-10T11:46:57.041Z,19.88
2023-12-10T11:49:25.210Z,28.45
2023-12-10T11:51:52.511Z,26.00
2023-12-10T11:54:19.948Z,24.15
2023-12-10T11:56:47.211Z,26.63
2023-12-10T11:59:14.002Z,24.20
2023-12-10T12:01:41.172Z,24.55
2023-12-10T12:04:08.403Z,22.50
2023-12-10T12:06:43.293Z,26.27
2023-12-10T12:09:21.569Z,22.73
2023-12-10T12:11:52.297Z,25.90
2023-12-10T12:14:20.607Z,26.60
2023-12-10T12:16:47.814Z,29.00
2023-12-10T12:19:30.698Z,30.23
2023-12-10T12:22:01.089Z,21.27
2023-12-10T12:24:28.421Z,27.63
2023-12-10T12:26:55.847Z,24.23
2023-12-10T12:29:22.620Z,24.35
2023-12-10T12:32:05.197Z,29.48
2023-12-10T12:34:36.510Z,25.13
2023-12-10T12:37:04.173Z,35.53
2023-12-10T12:39:31.099Z,25.05
2023-12-10T12:41:57.910Z,27.13
2023-12-10T12:44:24.669Z,23.42
2023-12-10T12:46:53.892Z,28.60
2023-12-10T12:49:21.151Z,23.05
2023-12-10T12:51:48.041Z,20.17
2023-12-10T12:54:15.889Z,24.50
2023-12-10T12:56:45.660Z,35.53
2023-12-10T12:59:16.437Z,32.08
2023-12-10T13:01:43.802Z,31.45
2023-12-10T13:04:11.117Z,28.52
2023-12-10T13:06:38.046Z,23.08
2023-12-10T13:09:08.310Z,28.27
2023-12-10T13:11:40.957Z,30.58
2023-12-10T13:14:07.602Z,26.80
2023-12-10T13:16:34.390Z,20.13
2023-12-10T13:19:02.012Z,25.02
2023-12-10T13:21:28.779Z,30.67
2023-12-10T13:23:55.533Z,22.83
2023-12-10T13:26:22.182Z,25.30
2023-12-10T13:28:49.640Z,30.92
2023-12-10T13:31:16.380Z,24.23
2023-12-10T13:33:43.549Z,25.45
2023-12-10T13:36:10.493Z,20.70
2023-12-10T13:38:37.319Z,25.80
2023-12-10T13:41:04.318Z,23.92
2023-12-10T13:43:30.978Z,21.48
2023-12-10T13:45:57.723Z,23.80
2023-12-10T13:48:24.733Z,17.65
2023-12-10T13:50:51.650Z,18.92
2023-12-10T13:53:19.027Z,23.77
2023-12-10T13:55:45.698Z,22.77
2023-12-10T13:58:12.513Z,23.55
2023-12-10T14:00:39.353Z,17.30
2023-12-10T14:03:06.196Z,21.90
2023-12-10T14:05:33.067Z,25.52
2023-12-10T14:08:00.924Z,21.45
2023-12-10T14:10:27.817Z,15.45
2023-12-10T14:12:54.551Z,16.88
2023-12-10T14:15:21.340Z,26.35
2023-12-10T14:17:48.041Z,20.92
2023-12-10T14:20:16.657Z,22.80
2023-12-10T14:22:44.224Z,27.15
2023-12-10T14:25:14.913Z,20.70
2023-12-10T14:27:42.851Z,18.98
2023-12-10T14:30:09.797Z,24.30
2023-12-10T14:32:36.602Z,20.48
2023-12-10T14:35:03.411Z,22.65
2023-12-10T14:37:30.422Z,20.02
2023-12-10T14:39:57.978Z,20.85
2023-12-10T14:42:25.010Z,22.80
2023-12-10T14:44:51.924Z,27.23
2023-12-10T14:47:18.601Z,27.65
2023-12-10T14:49:45.414Z,24.70
2023-12-10T14:52:12.199Z,28.25
2023-12-10T14:54:39.062Z,19.35
2023-12-10T14:57:06.739Z,28.05
2023-12-10T14:59:33.438Z,35.00
2023-12-10T15:02:08.919Z,30.17
2023-12-10T15:04:39.355Z,23.55
2023-12-10T15:07:06.232Z,23.80
2023-12-10T15:09:33.052Z,24.58
2023-12-10T15:11:59.787Z,22.88
2023-12-10T15:14:26.570Z,29.83
2023-12-10T15:16:54.517Z,30.50
2023-12-10T15:19:25.454Z,29.15
2023-12-10T15:21:52.634Z,24.85
2023-12-10T15:24:19.850Z,26.80
2023-12-10T15:26:47.678Z,36.00
2023-12-10T15:29:14.575Z,32.92
2023-12-10T15:31:41.337Z,31.67
2023-12-10T15:34:08.208Z,36.83
2023-12-10T15:36:35.146Z,36.85
2023-12-10T15:39:08.794Z,33.10
2023-12-10T15:42:09.229Z,25.13
2023-12-10T15:44:37.417Z,26.77
2023-12-10T15:47:04.354Z,37.97
2023-12-10T15:49:32.157Z,31.50
2023-12-10T15:52:01.299Z,26.88
2023-12-10T15:54:32.334Z,30.20
2023-12-10T15:56:59.714Z,27.95
2023-12-10T15:59:26.414Z,32.45
2023-12-10T16:01:54.012Z,37.20
2023-12-10T16:04:20.941Z,28.08
2023-12-10T16:06:47.796Z,27.90
2023-12-10T16:09:14.533Z,33.85
2023-12-10T16:11:41.222Z,31.83
2023-12-10T16:14:08.182Z,28.17
2023-12-10T16:16:35.006Z,37.28
2023-12-10T16:19:01.819Z,44.80
2023-12-10T16:21:28.609Z,41.38
2023-12-10T16:23:55.293Z,36.35
2023-12-10T16:26:23.515Z,44.78
2023-12-10T16:28:51.653Z,54.35
2023-12-10T16:31:18.468Z,49.25
2023-12-10T16:33:46.437Z,54.78
2023-12-10T16:36:14.493Z,41.10
2023-12-10T16:38:41.110Z,39.97
2023-12-10T16:41:08.920Z,48.72
2023-12-10T16:43:35.565Z,44.47
2023-12-10T16:46:02.330Z,31.98
2023-12-10T16:48:29.484Z,49.65
2023-12-10T16:50:57.116Z,55.08
2023-12-10T16:53:24.609Z,42.28
2023-12-10T16:55:53.605Z,41.22
2023-12-10T16:58:20.237Z,41.63
2023-12-10T17:00:48.338Z,38.53
2023-12-10T17:03:15.697Z,37.77
2023-12-10T17:05:42.473Z,39.17
2023-12-10T17:08:09.323Z,39.13
2023-12-10T17:10:37.082Z,42.60
2023-12-10T17:13:04.085Z,36.30
2023-12-10T17:15:31.017Z,35.63
2023-12-10T17:17:58.988Z,40.95
2023-12-10T17:20:25.718Z,36.00
2023-12-10T17:22:52.786Z,32.60
2023-12-10T17:25:19.415Z,31.73
2023-12-10T17:27:46.125Z,33.53
2023-12-10T17:30:16.383Z,40.05
2023-12-10T17:32:43.294Z,40.10
2023-12-10T17:35:12.957Z,41.90
2023-12-10T17:40:07.500Z,37.67
2023-12-10T17:42:37.099Z,33.85
2023-12-10T17:45:03.988Z,40.88
2023-12-10T17:47:30.936Z,35.08
2023-12-10T17:49:57.882Z,42.63
2023-12-10T17:52:24.639Z,34.38
2023-12-10T17:54:52.179Z,26.10
2023-12-10T17:57:19.056Z,33.47
2023-12-10T17:59:45.752Z,32.28
2023-12-10T18:02:12.526Z,31.23
2023-12-10T18:04:39.241Z,39.45
2023-12-10T18:07:06.434Z,20.92
2023-12-10T18:09:33.249Z,28.80
2023-12-10T18:12:00.201Z,34.38
2023-12-10T18:14:27.098Z,29.65
2023-12-10T18:16:53.974Z,27.83
2023-12-10T18:19:21.128Z,29.25
2023-12-10T18:21:47.921Z,21.60
2023-12-10T18:24:14.888Z,19.73
2023-12-10T18:26:41.517Z,18.50
2023-12-10T18:29:08.229Z,16.88
2023-12-10T18:31:35.116Z,19.50
2023-12-10T18:34:01.911Z,18.70
2023-12-10T18:36:31.079Z,24.00
2023-12-10T18:38:58.143Z,16.00
2023-12-10T18:41:25.599Z,26.35
2023-12-10T18:43:52.528Z,17.67
2023-12-10T18:46:19.151Z,26.10
2023-12-10T18:48:47.073Z,19.48
2023-12-10T18:51:14.201Z,20.30
2023-12-10T18:53:41.297Z,23.83
2023-12-10T18:56:09.503Z,20.70
2023-12-10T18:58:39.625Z,21.95
2023-12-10T19:01:06.824Z,21.90
2023-12-10T19:03:33.769Z,22.50
2023-12-10T19:06:01.458Z,21.70
2023-12-10T19:08:28.131Z,32.45
2023-12-10T19:10:55.862Z,19.85
2023-12-10T19:13:22.742Z,23.70
2023-12-10T19:15:50.444Z,23.75
2023-12-10T19:18:17.700Z,19.52
2023-12-10T19:20:44.465Z,19.70
2023-12-10T19:23:11.310Z,18.02
2023-12-10T19:25:38.037Z,21.88
2023-12-10T19:28:04.802Z,20.98
2023-12-10T19:30:31.615Z,23.95
2023-12-10T19:33:00.090Z,19.30
2023-12-10T19:35:30.351Z,20.33
2023-12-10T19:37:57.888Z,18.30
2023-12-10T19:40:27.386Z,27.63
2023-12-10T19:42:54.106Z,22.55
2023-12-10T19:45:20.914Z,18.23
2023-12-10T19:47:52.081Z,26.17
2023-12-10T19:50:20.080Z,26.23
2023-12-10T19:52:47.750Z,18.90
2023-12-10T19:55:16.095Z,22.08
2023-12-10T19:57:42.843Z,25.75
2023-12-10T20:00:09.998Z,23.95
2023-12-10T20:02:39.675Z,25.90
2023-12-10T20:05:12.706Z,21.35
2023-12-10T20:07:39.491Z,19.38
2023-12-10T20:10:06.488Z,17.35
2023-12-10T20:12:33.385Z,25.63
2023-12-10T20:15:00.142Z,21.77
2023-12-10T20:17:28.953Z,19.52
2023-12-10T20:19:55.995Z,23.52
2023-12-10T20:22:22.903Z,25.20
2023-12-10T20:24:56.500Z,20.10
2023-12-10T20:27:29.460Z,18.17
2023-12-10T20:29:56.624Z,17.20
2023-12-10T20:32:23.539Z,15.45
2023-12-10T20:34:50.445Z,13.45
2023-12-10T20:37:17.274Z,14.20
2023-12-10T20:39:44.149Z,11.80
2023-12-10T20:42:10.941Z,9.25
2023-12-10T20:44:37.612Z,13.77
2023-12-10T20:47:04.392Z,9.65
2023-12-10T20:49:31.225Z,9.55
2023-12-10T20:51:57.978Z,8.00
2023-12-10T20:54:24.804Z,8.52
2023-12-10T20:56:51.563Z,10.05
2023-12-10T20:59:18.225Z,11.55
2023-12-10T21:01:45.031Z,10.82
2023-12-10T21:04:11.792Z,10.45
2023-12-10T21:06:38.721Z,12.55
2023-12-10T21:09:06.538Z,7.78
2023-12-10T21:11:33.255Z,13.57
2023-12-10T21:14:04.661Z,8.05
2023-12-10T21:16:31.374Z,8.88
2023-12-10T21:18:58.138Z,18.35
2023-12-10T21:21:24.996Z,8.77
2023-12-10T21:23:51.774Z,8.95
2023-12-10T21:26:18.417Z,9.13
2023-12-10T21:28:45.104Z,4.50
2023-12-10T21:31:11.829Z,11.48
2023-12-10T21:33:38.585Z,8.27
2023-12-10T21:36:05.801Z,11.30
2023-12-10T21:38:32.533Z,11.75
2023-12-10T21:40:59.377Z,9.10
2023-12-10T21:43:26.092Z,9.05
2023-12-10T21:45:52.851Z,5.00
2023-12-10T21:48:19.882Z,11.27
2023-12-10T21:50:48.305Z,9.70
2023-12-10T21:53:15.272Z,7.28
2023-12-10T21:55:42.104Z,11.77
2023-12-10T21:58:08.909Z,11.30
2023-12-10T22:00:36.062Z,12.38
2023-12-10T22:03:04.106Z,8.02
2023-12-10T22:05:31.220Z,6.40
2023-12-10T22:07:58.088Z,9.95
2023-12-10T22:10:24.744Z,7.97
2023-12-10T22:12:51.438Z,10.25
2023-12-10T22:15:18.221Z,12.77
2023-12-10T22:17:45.058Z,12.77
2023-12-10T22:20:12.474Z,9.77
2023-12-10T22:22:42.405Z,6.95
2023-12-10T22:25:12.746Z,9.60
2023-12-10T22:27:39.647Z,9.67
2023-12-10T22:30:07.024Z,8.93
2023-12-10T22:32:34.256Z,8.02
2023-12-10T22:35:01.174Z,10.23
2023-12-10T22:37:28.305Z,16.08
2023-12-10T22:39:55.309Z,12.20
2023-12-10T22:42:21.971Z,14.15
2023-12-10T22:44:48.663Z,14.40
2023-12-10T22:47:15.284Z,10.70
2023-12-10T22:49:45.711Z,13.43
2023-12-10T22:52:13.461Z,17.00
2023-12-10T22:54:40.378Z,11.93
2023-12-10T22:57:07.039Z,14.00
2023-12-10T22:59:33.915Z,16.15
2023-12-10T23:02:01.404Z,12.60
2023-12-10T23:04:28.286Z,19.33
2023-12-10T23:06:55.519Z,8.02
2023-12-10T23:09:22.246Z,15.05
2023-12-10T23:11:49.168Z,13.48
2023-12-10T23:14:15.933Z,19.05
2023-12-10T23:16:43.084Z,17.35
2023-12-10T23:19:10.554Z,14.80
2023-12-10T23:21:37.576Z,20.02
2023-12-10T23:24:04.546Z,17.23
2023-12-10T23:26:31.219Z,16.00
2023-12-10T23:28:58.275Z,18.65
2023-12-10T23:31:24.952Z,17.92
2023-12-10T23:33:51.880Z,17.08
2023-12-10T23:36:18.645Z,18.67
2023-12-10T23:38:45.344Z,23.70
2023-12-10T23:41:13.848Z,25.65
2023-12-10T23:43:40.802Z,17.17
2023-12-10T23:46:09.240Z,19.73
2023-12-10T23:48:36.146Z,17.92
2023-12-10T23:51:02.847Z,19.48
2023-12-10T23:53:29.498Z,22.58
2023-12-10T23:55:56.160Z,22.48
2023-12-10T23:58:22.911Z,21.83
